Time;durP1;ratioP1;P1;durP2;ratioP2;P2;SDS_P1;SDS_P2;PMS_P1;PMS_P2;Temp;Humidity;BMP_temperature;BMP_pressure;BME280_temperature;BME280_humidity;BME280_pressure;Samples;Min_cycle;Max_cycle;Signal;HPM_P1;HPM_P2
2021/04/16 00:02:06;;;;;;;15.23;10.27;;;22.10;49.30;;;;;;5073625;28;20471;-81
2021/04/16 00:04:46;;;;;;;11.40;8.67;;;22.10;49.40;;;;;;5075754;28;20221;-81
2021/04/16 00:07:12;;;;;;;14.27;10.10;;;22.20;49.40;;;;;;5070955;28;20189;-82
2021/04/16 00:09:38;;;;;;;11.70;9.77;;;22.00;49.30;;;;;;5071249;28;20453;-81
2021/04/16 00:12:06;;;;;;;16.23;9.00;;;22.10;49.40;;;;;;5067079;28;20168;-82
2021/04/16 00:14:33;;;;;;;13.70;9.30;;;22.10;49.40;;;;;;5058990;28;20406;-82
2021/04/16 00:16:59;;;;;;;15.20;9.57;;;22.10;49.40;;;;;;5086025;28;20497;-82
2021/04/16 00:20:08;;;;;;;13.57;9.43;;;22.10;49.40;;;;;;5070443;28;20895;-82
2021/04/16 00:22:37;;;;;;;13.27;10.30;;;22.10;49.40;;;;;;5056516;28;20171;-82
2021/04/16 00:25:06;;;;;;;13.47;9.00;;;22.00;49.40;;;;;;5052152;28;20474;-81
2021/04/16 00:27:51;;;;;;;12.50;8.97;;;22.00;49.40;;;;;;5052757;28;20416;-82
2021/04/16 00:30:30;;;;;;;13.20;8.77;;;22.00;49.40;;;;;;5053136;28;20856;-82
2021/04/16 00:32:56;;;;;;;13.17;10.17;;;22.00;49.40;;;;;;5052799;28;20419;-81
2021/04/16 00:35:22;;;;;;;10.10;8.57;;;22.00;49.50;;;;;;5051726;28;20482;-82
2021/04/16 00:37:48;;;;;;;13.13;8.67;;;22.00;49.50;;;;;;5052054;28;20406;-82
2021/04/16 00:40:23;;;;;;;15.00;9.53;;;22.00;49.60;;;;;;5060985;28;20431;-82
2021/04/16 00:42:54;;;;;;;14.03;9.27;;;22.00;49.50;;;;;;5091460;28;20170;-82
2021/04/16 00:45:22;;;;;;;14.87;9.40;;;22.00;49.50;;;;;;5073668;28;20426;-82
2021/04/16 00:47:48;;;;;;;11.50;8.53;;;22.00;49.60;;;;;;5073466;28;20412;-82
2021/04/16 00:50:23;;;;;;;13.70;9.80;;;22.00;49.90;;;;;;5071050;28;20460;-82
2021/04/16 00:52:50;;;;;;;12.33;9.67;;;22.00;49.60;;;;;;5072724;28;20416;-82
2021/04/16 00:55:16;;;;;;;13.47;9.20;;;21.90;49.60;;;;;;5072963;28;20417;-82
2021/04/16 00:57:42;;;;;;;11.33;7.80;;;21.90;49.60;;;;;;5071931;28;20413;-82
2021/04/16 01:00:10;;;;;;;11.87;8.67;;;21.70;49.80;;;;;;5056273;28;20523;-82
2021/04/16 01:02:36;;;;;;;11.33;8.97;;;21.90;49.50;;;;;;5079574;28;20437;-82
2021/04/16 01:05:04;;;;;;;11.70;8.73;;;21.90;49.80;;;;;;5072773;28;20442;-82
2021/04/16 01:07:30;;;;;;;14.63;8.20;;;21.90;49.60;;;;;;5065396;28;20428;-82
2021/04/16 01:09:56;;;;;;;11.17;8.10;;;21.90;49.80;;;;;;5064530;28;20496;-82
2021/04/16 01:12:22;;;;;;;11.53;8.10;;;21.90;49.70;;;;;;5069387;28;20436;-82
2021/04/16 01:14:57;;;;;;;11.23;8.17;;;21.90;49.80;;;;;;5058816;28;20174;-83
2021/04/16 01:17:24;;;;;;;12.03;8.40;;;21.90;49.50;;;;;;5048775;28;20390;-82
2021/04/16 01:20:07;;;;;;;14.00;8.33;;;21.80;49.60;;;;;;5048728;28;20460;-82
2021/04/16 01:23:02;;;;;;;10.30;7.80;;;21.90;49.50;;;;;;5048620;28;20390;-82
2021/04/16 01:25:29;;;;;;;10.07;8.17;;;21.80;49.50;;;;;;5035409;28;20414;-82
2021/04/16 01:27:55;;;;;;;9.87;7.30;;;21.80;49.60;;;;;;5080634;28;20414;-82
2021/04/16 01:30:27;;;;;;;13.43;8.60;;;21.80;49.80;;;;;;5086219;28;20463;-83
2021/04/16 01:32:53;;;;;;;9.93;7.40;;;21.80;49.60;;;;;;5069001;28;20190;-81
2021/04/16 01:35:24;;;;;;;11.33;8.10;;;21.90;49.70;;;;;;5095888;28;20448;-82
2021/04/16 01:37:50;;;;;;;10.60;7.50;;;21.80;49.60;;;;;;5068664;28;20437;-82
2021/04/16 01:40:17;;;;;;;11.70;6.93;;;21.80;50.00;;;;;;5077173;28;20486;-82
2021/04/16 01:42:42;;;;;;;10.83;7.63;;;21.80;49.60;;;;;;5068714;28;20534;-84
2021/04/16 01:45:25;;;;;;;11.40;7.07;;;21.80;49.80;;;;;;5069582;28;20511;-84
2021/04/16 01:47:53;;;;;;;12.93;7.47;;;21.80;49.60;;;;;;5069715;28;20179;-85
2021/04/16 01:50:19;;;;;;;10.23;7.50;;;21.80;49.90;;;;;;5066326;28;20544;-85
2021/04/16 01:52:45;;;;;;;7.80;6.70;;;21.80;50.00;;;;;;5078742;28;20462;-86
2021/04/16 01:55:11;;;;;;;10.00;7.53;;;21.80;49.80;;;;;;5088496;28;20727;-85
2021/04/16 01:57:39;;;;;;;12.97;8.07;;;21.80;49.60;;;;;;5069897;28;20167;-86
2021/04/16 02:00:16;;;;;;;8.37;7.50;;;21.80;49.70;;;;;;5068587;28;20406;-86
2021/04/16 02:02:41;;;;;;;9.83;7.90;;;21.70;49.60;;;;;;5080748;28;20432;-85
2021/04/16 02:08:31;;;;;;;8.63;7.30;;;21.70;49.60;;;;;;5089828;28;20158;-85
2021/04/16 02:10:57;;;;;;;12.67;7.57;;;21.70;50.10;;;;;;5090023;28;20494;-85
2021/04/16 02:13:22;;;;;;;10.73;7.03;;;21.70;50.00;;;;;;5055988;28;20430;-85
2021/04/16 02:15:48;;;;;;;11.70;7.93;;;21.70;50.10;;;;;;5088630;28;20419;-86
2021/04/16 02:18:14;;;;;;;9.53;6.40;;;21.90;50.00;;;;;;5070151;28;20413;-86
2021/04/16 02:20:40;;;;;;;8.77;7.73;;;21.70;50.10;;;;;;5088508;28;20239;-86
2021/04/16 02:23:06;;;;;;;7.20;6.17;;;21.90;50.10;;;;;;5069831;28;20408;-85
2021/04/16 02:25:32;;;;;;;9.60;6.90;;;21.70;50.20;;;;;;5070635;28;20178;-85
2021/04/16 02:27:57;;;;;;;11.00;7.20;;;21.70;50.00;;;;;;5070429;28;20481;-86
2021/04/16 02:30:28;;;;;;;8.60;6.90;;;21.70;50.20;;;;;;5088228;28;20250;-86
2021/04/16 02:32:54;;;;;;;8.40;6.70;;;21.70;49.70;;;;;;5088945;28;20169;-86
2021/04/16 02:35:20;;;;;;;10.50;7.63;;;21.70;50.00;;;;;;5088383;28;20870;-86
2021/04/16 02:37:49;;;;;;;9.43;6.43;;;21.70;49.90;;;;;;5070211;28;20186;-86
2021/04/16 02:40:17;;;;;;;9.07;7.20;;;21.70;49.90;;;;;;5070461;28;20420;-86
2021/04/16 02:42:43;;;;;;;9.60;6.00;;;21.70;49.70;;;;;;5070022;28;20444;-85
2021/04/16 02:45:14;;;;;;;9.63;7.30;;;21.70;49.80;;;;;;5069948;28;20447;-85
2021/04/16 02:47:40;;;;;;;7.77;6.33;;;21.70;49.70;;;;;;5088778;28;20533;-85
2021/04/16 02:50:10;;;;;;;8.80;6.37;;;21.70;49.70;;;;;;5069922;28;20456;-86
2021/04/16 02:52:36;;;;;;;7.80;6.10;;;21.70;49.80;;;;;;5070016;28;20420;-85
2021/04/16 02:55:03;;;;;;;9.07;6.60;;;21.70;49.80;;;;;;5088427;28;20389;-86
2021/04/16 02:57:29;;;;;;;12.50;7.03;;;21.70;49.60;;;;;;5070013;28;20421;-85
2021/04/16 02:59:57;;;;;;;9.37;6.53;;;21.70;49.90;;;;;;5071209;28;20419;-85
2021/04/16 03:02:23;;;;;;;10.57;6.63;;;21.70;49.70;;;;;;5061089;28;20190;-85
2021/04/16 03:04:48;;;;;;;8.20;6.10;;;21.60;49.90;;;;;;5049750;28;20475;-86
2021/04/16 03:07:14;;;;;;;11.30;6.57;;;21.60;49.80;;;;;;5050225;28;20414;-85
2021/04/16 03:09:40;;;;;;;9.70;6.50;;;21.70;49.80;;;;;;5049281;28;20233;-86
2021/04/16 03:12:10;;;;;;;8.57;6.40;;;21.60;49.90;;;;;;5049830;28;20413;-86
2021/04/16 03:14:35;;;;;;;8.43;5.77;;;21.70;50.00;;;;;;5070068;28;20393;-86
2021/04/16 03:17:01;;;;;;;8.30;6.10;;;21.60;50.10;;;;;;5071557;28;20410;-86
2021/04/16 03:19:27;;;;;;;8.23;6.37;;;21.60;50.00;;;;;;5071519;28;20167;-86
2021/04/16 03:21:54;;;;;;;8.73;5.83;;;21.60;50.00;;;;;;5053707;28;20456;-86
2021/04/16 03:24:23;;;;;;;7.40;5.83;;;21.60;50.30;;;;;;5053961;28;20175;-86
2021/04/16 03:26:49;;;;;;;8.10;5.57;;;21.60;50.00;;;;;;5070984;28;20409;-86
2021/04/16 03:29:15;;;;;;;8.43;6.27;;;21.70;50.10;;;;;;5071240;28;20477;-86
2021/04/16 03:31:45;;;;;;;8.10;5.93;;;21.60;49.90;;;;;;5071284;28;20413;-86
2021/04/16 03:34:11;;;;;;;9.70;5.77;;;21.60;49.90;;;;;;5053138;28;20406;-86
2021/04/16 03:36:39;;;;;;;7.27;5.60;;;21.60;49.70;;;;;;5053379;28;20425;-86
2021/04/16 03:39:08;;;;;;;10.30;5.63;;;21.60;50.30;;;;;;5071060;28;20432;-85
2021/04/16 03:41:34;;;;;;;9.77;6.10;;;21.60;49.90;;;;;;5053509;28;20436;-85
2021/04/16 03:44:02;;;;;;;7.53;5.93;;;21.60;50.20;;;;;;5053933;28;20414;-85
2021/04/16 03:46:27;;;;;;;8.50;6.07;;;21.60;49.80;;;;;;5054400;28;20182;-86
2021/04/16 03:48:53;;;;;;;9.03;6.00;;;21.60;50.00;;;;;;5053674;28;20413;-86
2021/04/16 03:51:19;;;;;;;10.13;6.40;;;21.50;49.90;;;;;;5072865;28;20194;-86
2021/04/16 03:53:45;;;;;;;8.07;5.47;;;21.50;50.00;;;;;;5071542;28;20221;-86
2021/04/16 03:56:13;;;;;;;6.57;5.10;;;21.50;50.20;;;;;;5071883;28;20258;-85
2021/04/16 03:58:40;;;;;;;8.33;5.77;;;21.50;49.80;;;;;;5052466;28;20421;-85
2021/04/16 04:01:07;;;;;;;7.07;5.00;;;21.50;50.30;;;;;;5053280;28;20428;-86
2021/04/16 04:03:33;;;;;;;9.63;6.27;;;21.50;50.00;;;;;;5071490;28;20433;-86
2021/04/16 04:05:59;;;;;;;7.33;4.80;;;21.50;50.00;;;;;;5054139;28;20433;-86
2021/04/16 04:08:26;;;;;;;7.23;5.60;;;21.40;50.20;;;;;;5052523;28;20418;-86
2021/04/16 04:10:52;;;;;;;5.77;4.77;;;21.40;49.80;;;;;;5071343;28;20457;-86
2021/04/16 04:13:20;;;;;;;7.07;5.47;;;21.20;49.90;;;;;;5054220;28;20432;-86
2021/04/16 04:15:47;;;;;;;7.33;6.53;;;21.50;50.20;;;;;;5036874;28;20422;-85
2021/04/16 04:18:13;;;;;;;8.07;4.80;;;21.40;49.90;;;;;;5069421;28;20413;-86
2021/04/16 04:20:40;;;;;;;7.03;5.00;;;21.40;50.30;;;;;;5052490;28;20568;-86
2021/04/16 04:23:07;;;;;;;7.80;5.40;;;21.40;50.00;;;;;;5036221;28;20233;-85
2021/04/16 04:25:36;;;;;;;7.00;5.17;;;21.40;49.90;;;;;;5052531;28;20428;-85
2021/04/16 04:28:05;;;;;;;6.00;4.97;;;21.40;50.00;;;;;;5052357;28;20437;-86
2021/04/16 04:30:35;;;;;;;7.60;5.97;;;21.40;50.00;;;;;;5052465;28;20647;-86
2021/04/16 04:33:01;;;;;;;6.77;5.37;;;21.40;49.90;;;;;;5052500;28;20492;-86
2021/04/16 04:35:28;;;;;;;6.97;5.40;;;21.40;50.30;;;;;;5052070;28;20422;-86
2021/04/16 04:37:54;;;;;;;9.73;5.20;;;21.40;49.90;;;;;;5069472;28;20217;-86
2021/04/16 04:40:23;;;;;;;7.40;5.57;;;21.40;49.90;;;;;;5050909;28;20417;-86
2021/04/16 04:42:52;;;;;;;6.47;4.77;;;21.50;49.90;;;;;;5051667;28;20939;-86
2021/04/16 04:45:18;;;;;;;8.27;5.17;;;21.50;50.50;;;;;;5068765;28;20417;-86
2021/04/16 04:47:44;;;;;;;6.80;5.37;;;21.50;49.80;;;;;;5051399;28;20453;-83
2021/04/16 04:53:35;;;;;;;8.57;5.20;;;21.50;49.70;;;;;;5050126;28;20398;-83
2021/04/16 04:56:00;;;;;;;8.00;6.37;;;21.50;49.80;;;;;;5062310;28;20416;-83
2021/04/16 04:58:26;;;;;;;6.00;4.53;;;21.50;50.00;;;;;;5079707;28;20778;-83
2021/04/16 05:00:52;;;;;;;7.10;4.73;;;21.60;50.00;;;;;;5070463;28;20189;-83
2021/04/16 05:03:18;;;;;;;5.57;3.97;;;21.60;50.00;;;;;;5085383;28;20397;-83
2021/04/16 05:05:43;;;;;;;6.13;4.87;;;21.60;49.70;;;;;;5086837;28;20190;-83
2021/04/16 05:08:09;;;;;;;6.00;4.80;;;21.60;49.60;;;;;;5087910;28;20174;-83
2021/04/16 05:10:35;;;;;;;6.50;4.87;;;21.60;50.00;;;;;;5087236;28;20194;-82
2021/04/16 05:13:01;;;;;;;7.47;5.57;;;21.60;49.60;;;;;;5067293;28;20489;-82
2021/04/16 05:16:10;;;;;;;6.40;4.33;;;21.70;49.60;;;;;;5066182;28;20177;-82
2021/04/16 05:18:37;;;;;;;5.60;4.30;;;21.70;49.40;;;;;;5067435;28;20389;-82
2021/04/16 05:21:04;;;;;;;7.20;5.07;;;21.70;49.70;;;;;;5065688;28;20468;-82
2021/04/16 05:23:30;;;;;;;7.40;4.67;;;21.70;49.50;;;;;;5067298;28;20433;-83
2021/04/16 05:25:56;;;;;;;7.23;4.83;;;21.70;49.50;;;;;;5066424;28;20428;-83
2021/04/16 05:28:22;;;;;;;5.90;4.67;;;21.80;49.60;;;;;;5066027;28;20418;-82
2021/04/16 05:30:48;;;;;;;6.00;4.40;;;21.70;49.40;;;;;;5066647;28;20618;-81
2021/04/16 05:33:13;;;;;;;5.47;4.30;;;21.80;49.60;;;;;;5068711;28;20417;-82
2021/04/16 05:35:39;;;;;;;5.23;4.10;;;21.70;49.40;;;;;;5068529;28;20777;-82
2021/04/16 05:38:05;;;;;;;7.50;4.43;;;21.80;49.60;;;;;;5067777;28;20238;-82
2021/04/16 05:40:37;;;;;;;6.43;4.70;;;21.80;49.50;;;;;;5068373;28;20346;-83
2021/04/16 05:43:03;;;;;;;5.77;4.93;;;21.80;49.20;;;;;;5069121;28;20408;-83
2021/04/16 05:45:29;;;;;;;6.20;4.20;;;21.80;49.40;;;;;;5068114;28;20438;-83
2021/04/16 05:47:54;;;;;;;5.50;4.23;;;21.80;49.70;;;;;;5067107;28;20294;-83
2021/04/16 05:53:43;;;;;;;4.80;4.20;;;21.80;49.10;;;;;;5083277;28;20167;-82
2021/04/16 05:56:11;;;;;;;5.87;4.03;;;21.80;49.40;;;;;;5088932;28;20899;-82
2021/04/16 05:58:37;;;;;;;7.03;5.20;;;21.80;49.50;;;;;;5088390;28;20167;-85
2021/04/16 06:01:07;;;;;;;5.50;4.30;;;21.80;49.80;;;;;;5086787;28;20474;-86
2021/04/16 06:03:34;;;;;;;5.00;3.93;;;21.80;49.40;;;;;;5087024;28;20652;-84
2021/04/16 06:06:02;;;;;;;4.83;3.77;;;21.90;49.70;;;;;;5068532;28;20480;-84
2021/04/16 06:08:29;;;;;;;5.40;4.30;;;21.80;49.60;;;;;;5087719;28;20182;-83
2021/04/16 06:10:56;;;;;;;4.87;3.90;;;21.90;49.60;;;;;;5068460;28;20456;-85
2021/04/16 06:13:23;;;;;;;5.90;4.27;;;21.90;49.80;;;;;;5068249;28;20408;-84
2021/04/16 06:15:51;;;;;;;5.50;4.20;;;22.00;49.40;;;;;;5068445;28;20428;-85
2021/04/16 06:18:16;;;;;;;5.20;3.60;;;22.00;49.50;;;;;;5069548;28;20412;-85
2021/04/16 06:20:42;;;;;;;5.40;3.80;;;22.10;49.60;;;;;;5087029;28;20411;-84
2021/04/16 06:23:11;;;;;;;6.47;4.57;;;22.10;49.30;;;;;;5068694;28;20178;-84
2021/04/16 06:25:37;;;;;;;5.77;4.10;;;22.10;49.40;;;;;;5087105;28;20650;-85
2021/04/16 06:28:05;;;;;;;5.07;4.17;;;22.10;49.20;;;;;;5069725;28;20431;-84
2021/04/16 06:30:31;;;;;;;4.80;3.30;;;22.20;49.20;;;;;;5069313;28;20452;-84
2021/04/16 06:33:16;;;;;;;5.90;4.90;;;22.20;49.20;;;;;;5067848;28;20446;-84
2021/04/16 06:35:48;;;;;;;4.93;3.90;;;22.20;49.10;;;;;;5087222;28;20400;-84
2021/04/16 06:38:15;;;;;;;5.67;4.27;;;22.20;49.10;;;;;;5068906;28;20466;-84
2021/04/16 06:40:41;;;;;;;5.07;3.70;;;22.20;49.20;;;;;;5067337;28;20450;-84
2021/04/16 06:43:08;;;;;;;5.83;3.93;;;22.30;49.50;;;;;;5084943;28;20412;-84
2021/04/16 06:45:37;;;;;;;6.23;3.97;;;22.30;49.00;;;;;;5085240;28;20886;-84
2021/04/16 06:48:06;;;;;;;4.20;3.20;;;22.30;49.10;;;;;;5068751;28;20420;-85
2021/04/16 06:50:40;;;;;;;6.20;3.93;;;22.30;49.10;;;;;;5071543;28;20459;-85
2021/04/16 06:53:35;;;;;;;5.10;4.00;;;22.40;49.10;;;;;;5089426;28;20418;-85
2021/04/16 06:56:07;;;;;;;5.23;4.73;;;22.40;49.00;;;;;;5063414;28;20418;-83
2021/04/16 06:58:56;;;;;;;5.77;3.70;;;22.40;49.20;;;;;;5068446;28;20414;-84
2021/04/16 07:01:42;;;;;;;5.33;3.87;;;22.20;48.90;;;;;;5074156;28;20417;-86
2021/04/16 07:04:37;;;;;;;4.57;3.60;;;22.40;49.00;;;;;;5077343;28;20431;-86
2021/04/16 07:07:23;;;;;;;4.70;3.73;;;22.40;49.00;;;;;;5012174;28;20493;-86
2021/04/16 07:09:58;;;;;;;5.00;3.87;;;22.40;49.00;;;;;;5020110;28;20463;-86
2021/04/16 07:12:27;;;;;;;3.70;3.00;;;22.40;49.10;;;;;;5030543;28;20422;-86
2021/04/16 07:14:56;;;;;;;5.10;3.50;;;22.40;49.00;;;;;;5014610;28;20459;-86
2021/04/16 07:17:28;;;;;;;3.93;3.30;;;22.50;49.70;;;;;;5028318;28;20569;-86
2021/04/16 07:19:55;;;;;;;4.10;3.20;;;22.50;49.20;;;;;;5012227;28;20427;-86
2021/04/16 07:22:47;;;;;;;4.37;3.07;;;22.50;49.20;;;;;;5027616;28;20411;-86
2021/04/16 07:26:10;;;;;;;3.50;2.90;;;22.60;49.10;;;;;;5028022;28;20422;-86
2021/04/16 07:28:44;;;;;;;4.30;3.30;;;22.50;49.00;;;;;;4973963;28;20425;-86
2021/04/16 07:31:33;;;;;;;4.93;3.30;;;22.40;48.90;;;;;;4974108;28;20486;-86
2021/04/16 07:34:01;;;;;;;3.73;3.03;;;22.50;49.10;;;;;;4977614;28;20518;-86
2021/04/16 07:36:30;;;;;;;4.47;3.73;;;22.50;49.10;;;;;;4973704;28;20454;-86
2021/04/16 07:39:03;;;;;;;4.33;3.40;;;22.50;49.20;;;;;;4989228;28;20527;-86
2021/04/16 07:41:35;;;;;;;3.70;3.00;;;22.60;49.20;;;;;;4974611;28;20417;-86
2021/04/16 07:44:03;;;;;;;4.33;3.20;;;22.60;49.30;;;;;;4995550;28;20787;-86
2021/04/16 07:46:29;;;;;;;6.87;3.17;;;22.60;49.10;;;;;;5013786;28;20407;-86
2021/04/16 07:49:18;;;;;;;3.17;2.87;;;22.40;49.60;;;;;;5012787;28;20415;-88
2021/04/16 07:51:51;;;;;;;4.70;3.10;;;22.60;49.00;;;;;;5014860;28;20176;-86
2021/04/16 07:54:28;;;;;;;3.70;3.20;;;22.60;49.00;;;;;;5063075;28;20405;-86
2021/04/16 07:57:10;;;;;;;6.37;3.30;;;22.60;49.00;;;;;;5058262;28;20485;-87
2021/04/16 07:59:57;;;;;;;4.37;3.10;;;22.70;49.10;;;;;;5072941;28;20398;-86
2021/04/16 08:02:34;;;;;;;5.83;3.10;;;22.70;49.10;;;;;;5073819;28;20411;-85
2021/04/16 08:05:24;;;;;;;4.67;3.73;;;22.70;49.10;;;;;;5071957;28;20498;-86
2021/04/16 08:08:16;;;;;;;5.27;3.37;;;22.70;49.10;;;;;;5097379;28;20425;-86
2021/04/16 08:10:44;;;;;;;3.33;2.63;;;22.70;49.10;;;;;;5070895;28;20942;-86
2021/04/16 08:13:13;;;;;;;4.07;3.20;;;22.70;49.20;;;;;;5062801;28;20421;-85
2021/04/16 08:15:40;;;;;;;5.17;3.50;;;22.70;49.10;;;;;;5084049;28;20432;-84
2021/04/16 08:18:20;;;;;;;6.30;3.40;;;22.70;49.20;;;;;;5084669;28;20410;-85
2021/04/16 08:20:58;;;;;;;4.20;2.93;;;22.80;49.30;;;;;;5079951;28;20459;-84
2021/04/16 08:23:35;;;;;;;4.20;2.93;;;22.80;49.20;;;;;;5070117;28;20419;-84
2021/04/16 08:26:03;;;;;;;3.77;3.00;;;22.70;49.10;;;;;;5066325;28;20420;-84
2021/04/16 08:28:51;;;;;;;3.27;2.97;;;22.80;49.20;;;;;;5069670;28;20499;-85
2021/04/16 08:31:27;;;;;;;3.20;2.57;;;22.80;49.10;;;;;;5064918;28;21019;-85
2021/04/16 08:34:15;;;;;;;3.17;2.50;;;22.80;49.20;;;;;;5085394;28;20397;-84
2021/04/16 08:36:43;;;;;;;4.40;2.80;;;22.80;49.10;;;;;;5068368;28;20405;-84
2021/04/16 08:39:21;;;;;;;3.77;3.37;;;22.80;49.20;;;;;;5070178;28;20403;-84
2021/04/16 08:42:07;;;;;;;3.53;2.70;;;22.80;49.10;;;;;;5087433;28;20460;-84
2021/04/16 08:44:42;;;;;;;3.47;3.10;;;22.80;49.10;;;;;;5066478;28;20455;-84
2021/04/16 08:47:22;;;;;;;4.80;2.80;;;22.80;49.10;;;;;;5079803;28;20419;-84
2021/04/16 08:49:53;;;;;;;4.30;2.47;;;22.80;49.10;;;;;;5087300;28;20495;-85
2021/04/16 08:52:40;;;;;;;3.10;2.60;;;22.80;49.10;;;;;;5089903;28;20423;-85
2021/04/16 08:55:55;;;;;;;3.20;2.40;;;22.90;49.20;;;;;;5087138;28;20400;-84
2021/04/16 08:58:37;;;;;;;3.13;2.40;;;22.90;49.20;;;;;;5063331;28;20412;-83
2021/04/16 09:01:28;;;;;;;4.10;2.90;;;22.80;49.10;;;;;;5069260;28;20443;-86
2021/04/16 09:03:56;;;;;;;3.40;2.93;;;22.90;49.20;;;;;;5067383;28;20429;-85
2021/04/16 09:06:31;;;;;;;3.83;2.57;;;22.80;49.10;;;;;;5069427;28;20416;-85
2021/04/16 09:08:59;;;;;;;4.57;2.80;;;22.90;49.20;;;;;;5096131;28;20416;-85
2021/04/16 09:11:54;;;;;;;3.80;2.40;;;22.90;49.20;;;;;;5068361;28;20577;-84
2021/04/16 09:14:26;;;;;;;5.20;2.97;;;22.90;49.20;;;;;;5069262;28;20436;-84
2021/04/16 09:16:59;;;;;;;2.77;2.20;;;22.90;49.20;;;;;;5070176;28;20413;-83
2021/04/16 09:19:32;;;;;;;4.40;2.77;;;23.00;49.20;;;;;;5064281;28;20428;-83
2021/04/16 09:22:10;;;;;;;2.83;2.30;;;22.90;49.20;;;;;;5066048;28;20468;-83
2021/04/16 09:24:49;;;;;;;4.60;2.87;;;22.90;49.20;;;;;;5063333;28;20421;-83
2021/04/16 09:27:34;;;;;;;3.20;2.33;;;22.90;49.10;;;;;;5097628;28;20424;-83
2021/04/16 09:30:14;;;;;;;2.77;2.57;;;22.90;49.10;;;;;;5086424;28;20525;-83
2021/04/16 09:32:55;;;;;;;2.87;2.53;;;23.00;49.20;;;;;;5082741;28;20405;-83
2021/04/16 09:35:28;;;;;;;3.13;2.77;;;22.90;49.10;;;;;;5065937;28;20415;-83
2021/04/16 09:38:24;;;;;;;4.00;2.70;;;22.90;49.10;;;;;;5066728;28;20496;-83
2021/04/16 09:41:15;;;;;;;4.10;3.30;;;23.00;49.20;;;;;;5065674;28;20428;-83
2021/04/16 09:43:51;;;;;;;3.93;2.50;;;22.90;49.10;;;;;;5068499;28;20444;-83
2021/04/16 09:46:45;;;;;;;3.17;2.30;;;22.90;49.10;;;;;;5072473;28;20431;-83
2021/04/16 09:49:31;;;;;;;3.20;2.90;;;22.90;49.10;;;;;;5083081;28;21051;-84
2021/04/16 09:52:00;;;;;;;3.23;2.80;;;23.00;49.20;;;;;;5070175;28;20488;-84
2021/04/16 09:54:37;;;;;;;4.73;2.43;;;22.90;49.10;;;;;;5088757;28;20430;-83
2021/04/16 09:57:05;;;;;;;2.93;2.43;;;23.00;49.20;;;;;;5088738;28;20405;-83
2021/04/16 10:00:05;;;;;;;2.97;2.30;;;22.90;49.20;;;;;;5070734;28;20444;-83
2021/04/16 10:02:37;;;;;;;3.67;2.70;;;23.00;49.20;;;;;;5079469;28;20438;-84
2021/04/16 10:05:15;;;;;;;2.50;2.20;;;23.00;49.20;;;;;;5059811;28;20424;-85
2021/04/16 10:07:56;;;;;;;4.20;2.70;;;23.00;49.20;;;;;;5082056;28;20428;-83
2021/04/16 10:10:39;;;;;;;5.83;2.70;;;23.00;49.10;;;;;;5058904;28;20496;-83
2021/04/16 10:13:44;;;;;;;3.63;2.83;;;23.00;49.10;;;;;;5064519;28;20420;-83
2021/04/16 10:16:21;;;;;;;2.90;2.40;;;23.00;49.20;;;;;;5044429;28;20799;-83
2021/04/16 10:18:47;;;;;;;3.70;2.80;;;22.90;49.20;;;;;;5064605;28;20459;-83
2021/04/16 10:21:17;;;;;;;2.97;2.60;;;22.90;49.20;;;;;;5070749;28;20494;-88
2021/04/16 10:23:51;;;;;;;4.27;2.87;;;22.90;49.10;;;;;;5090437;28;20427;-88
2021/04/16 11:20:45;;;;;;;12.10;7.67;;;22.60;49.20;;;;;;5078761;28;20459;-82
2021/04/16 12:39:09;;;;;;;16.70;8.50;;;22.40;49.40;;;;;;5109617;28;20430;-83
2021/04/16 12:42:06;;;;;;;14.87;8.13;;;22.40;49.40;;;;;;5089431;28;20412;-82
2021/04/16 12:44:40;;;;;;;17.23;8.73;;;22.40;49.40;;;;;;5096865;28;20477;-83
2021/04/16 12:47:30;;;;;;;15.63;10.03;;;22.40;49.40;;;;;;5096400;28;20412;-82
2021/04/16 13:00:14;;;;;;;15.63;7.90;;;22.30;49.30;;;;;;5111118;28;20467;-87
2021/04/16 13:02:53;;;;;;;14.80;7.33;;;22.30;49.40;;;;;;5088625;28;20435;-86
2021/04/16 13:05:29;;;;;;;13.60;7.57;;;22.30;49.40;;;;;;5088671;28;20411;-88
2021/04/16 13:07:55;;;;;;;14.93;8.30;;;22.30;49.40;;;;;;5084102;28;20470;-87
2021/04/16 13:10:23;;;;;;;16.60;8.50;;;22.30;49.50;;;;;;5083693;28;20452;-87
2021/04/16 13:16:39;;;;;;;14.00;7.60;;;22.30;49.30;;;;;;5070300;28;20443;-90
2021/04/16 13:19:57;;;;;;;15.60;7.40;;;22.30;49.50;;;;;;5070123;28;20421;-87
2021/04/16 13:22:25;;;;;;;13.63;7.60;;;22.30;49.50;;;;;;5031713;28;20501;-88
2021/04/16 13:24:51;;;;;;;16.70;7.93;;;22.30;49.80;;;;;;5068468;28;20437;-87
2021/04/16 13:27:24;;;;;;;14.23;8.20;;;22.30;49.60;;;;;;5049743;28;20541;-87
2021/04/16 13:29:53;;;;;;;13.93;7.87;;;22.30;49.70;;;;;;5067800;28;20459;-87
2021/04/16 13:38:40;;;;;;;13.70;7.83;;;22.40;49.50;;;;;;5519905;22;20619;-83
2021/04/16 13:44:31;;;;;;;11.37;7.17;;;22.40;49.30;;;;;;5064739;28;21263;-85
2021/04/16 13:47:24;;;;;;;15.07;7.03;;;22.40;49.50;;;;;;5045345;28;20452;-85
2021/04/16 13:50:07;;;;;;;10.70;7.80;;;22.50;49.40;;;;;;5065575;28;20453;-84
2021/04/16 13:53:04;;;;;;;11.03;7.30;;;22.50;49.40;;;;;;5068354;28;20409;-85
2021/04/16 13:55:36;;;;;;;14.07;7.23;;;22.40;49.20;;;;;;5050556;28;20406;-84
2021/04/16 14:01:33;;;;;;;16.53;7.70;;;22.50;49.30;;;;;;5053623;28;20428;-84
2021/04/16 14:04:06;;;;;;;13.77;6.87;;;22.50;49.50;;;;;;5050974;28;20409;-83
2021/04/16 14:06:58;;;;;;;10.87;7.60;;;22.50;49.50;;;;;;5051165;28;20410;-84
2021/04/16 14:09:30;;;;;;;11.87;6.70;;;22.60;49.50;;;;;;5042121;28;20475;-84
2021/04/16 14:15:43;;;;;;;11.70;6.27;;;22.60;49.40;;;;;;4930922;29;20482;-84
2021/04/16 14:18:36;;;;;;;12.47;8.00;;;22.60;49.30;;;;;;4920080;29;20432;-84
2021/04/16 14:21:04;;;;;;;14.23;7.57;;;22.60;49.40;;;;;;4921826;29;20423;-83
2021/04/16 14:23:31;;;;;;;13.73;7.00;;;22.60;49.50;;;;;;4928146;29;20500;-84
2021/04/16 14:26:03;;;;;;;10.30;6.50;;;22.80;49.70;;;;;;4911791;29;20495;-85
2021/04/16 14:28:31;;;;;;;11.33;6.40;;;22.70;49.40;;;;;;4912658;29;21014;-85
2021/04/16 14:30:59;;;;;;;12.80;7.07;;;22.70;49.60;;;;;;4908783;29;20510;-85
2021/04/16 14:33:31;;;;;;;11.97;7.10;;;22.70;49.60;;;;;;4911215;29;20420;-87
2021/04/16 14:36:29;;;;;;;13.03;6.30;;;22.70;49.50;;;;;;4914560;29;20459;-87
2021/04/16 14:38:56;;;;;;;16.30;6.60;;;22.70;49.20;;;;;;4930563;29;20480;-88
2021/04/16 14:41:37;;;;;;;13.43;6.83;;;22.70;49.60;;;;;;4911361;29;20519;-87
2021/04/16 14:44:22;;;;;;;11.90;7.07;;;22.70;49.30;;;;;;4913020;29;20411;-87
2021/04/16 14:47:03;;;;;;;11.13;7.20;;;22.70;49.40;;;;;;4982991;28;20420;-88
2021/04/16 14:49:32;;;;;;;9.00;6.13;;;22.80;49.50;;;;;;4978697;28;20456;-88
2021/04/16 14:52:00;;;;;;;13.27;6.60;;;22.70;49.80;;;;;;5030307;28;20414;-88
2021/04/16 14:54:46;;;;;;;10.33;5.80;;;22.60;49.30;;;;;;5050487;28;20418;-87
2021/04/16 14:57:48;;;;;;;11.40;7.50;;;22.80;49.40;;;;;;5049136;28;20442;-87
2021/04/16 15:00:20;;;;;;;13.73;7.17;;;22.80;49.50;;;;;;4969432;28;20864;-88
2021/04/16 15:02:46;;;;;;;10.23;6.73;;;22.70;49.30;;;;;;4970417;28;20432;-86
2021/04/16 15:05:14;;;;;;;13.83;6.97;;;22.70;49.90;;;;;;4970751;28;20436;-84
2021/04/16 15:07:53;;;;;;;8.50;5.80;;;22.70;49.30;;;;;;4966362;29;20272;-84
2021/04/16 15:10:26;;;;;;;8.20;6.47;;;22.80;49.30;;;;;;4986853;28;20448;-84
2021/04/16 15:12:53;;;;;;;12.30;6.50;;;22.80;49.30;;;;;;4974324;28;20429;-85
2021/04/16 15:15:27;;;;;;;11.97;6.40;;;22.80;49.40;;;;;;4990757;28;20417;-84
2021/04/16 15:18:02;;;;;;;12.90;5.73;;;22.80;49.30;;;;;;4989785;28;20500;-84
2021/04/16 15:20:33;;;;;;;10.83;5.67;;;22.80;49.40;;;;;;4991236;28;20422;-84
2021/04/16 15:23:05;;;;;;;13.87;6.23;;;22.80;49.40;;;;;;4991543;28;20424;-83
2021/04/16 15:25:34;;;;;;;10.73;6.17;;;22.80;49.40;;;;;;4953732;28;20429;-84
2021/04/16 15:28:09;;;;;;;13.10;5.83;;;22.80;49.40;;;;;;4992450;28;20449;-84
2021/04/16 15:30:38;;;;;;;11.50;5.77;;;22.80;49.30;;;;;;4993032;28;20479;-84
2021/04/16 15:33:17;;;;;;;14.17;6.23;;;22.80;49.40;;;;;;4978144;28;20452;-83
2021/04/16 15:47:39;;;;;;;13.57;6.17;;;22.80;49.30;;;;;;5034531;28;20431;-84
2021/04/16 15:50:11;;;;;;;9.90;5.50;;;22.80;49.60;;;;;;5042784;28;20454;-84
2021/04/16 15:52:38;;;;;;;9.87;5.97;;;22.80;49.40;;;;;;5034126;28;20431;-83
2021/04/16 15:55:09;;;;;;;13.27;5.10;;;22.80;49.40;;;;;;5035313;28;20438;-83
2021/04/16 15:57:53;;;;;;;7.73;5.33;;;22.80;49.30;;;;;;5048558;28;20822;-83
2021/04/16 16:00:30;;;;;;;12.10;6.67;;;22.90;49.30;;;;;;5028595;28;20469;-83
2021/04/16 16:02:58;;;;;;;8.50;4.97;;;22.80;49.20;;;;;;5034492;28;20421;-83
2021/04/16 16:05:25;;;;;;;9.80;6.10;;;22.80;49.60;;;;;;5038003;28;20415;-84
2021/04/16 16:07:53;;;;;;;7.90;4.93;;;22.80;49.40;;;;;;5035121;28;20921;-83
2021/04/16 16:10:22;;;;;;;9.30;6.40;;;22.80;49.40;;;;;;5030915;28;20888;-84
2021/04/16 16:12:52;;;;;;;7.60;6.40;;;22.80;49.40;;;;;;5049501;28;20437;-83
2021/04/16 16:15:35;;;;;;;12.93;5.60;;;22.80;49.20;;;;;;5030087;28;20477;-85